EKGH weather

Grønholt Hillerød Airport
Grønholt, Capital Region, Denmark

Public forecast

Using degrees Celsius for public forecast. Weather courtesy of forecast.io.

Closest aviation weather report (METAR) to Grønholt Hillerød Airport

Closest report is Copenhagen Kastrup Airport, 21.5 nm (39.8 km) SSE. Retrieved 2020/04/02 12:50 UTC (29 minutes ago):

EKCH 021250Z AUTO 23025KT 9999 OVC035/// 09/03 Q1000 TEMPO 26022G35KT

Closest aviation forecast (TAF) to Grønholt Hillerød Airport

Closest forecast is Copenhagen Kastrup Airport, 21.5 nm (39.8 km) SSE. Retrieved 2020/04/02 12:00 UTC (1 hour ago):

TAF EKCH 021129Z 0212/0312 25020KT 9999 BKN020 TEMPO 0212/0215 26025G38KT TEMPO 0215/0217 26025G40KT BKN012TCU TEMPO 0217/0221 27025G35KT 4000 SHRA BKN012TCU TEMPO 0221/0224 27020G35KT TEMPO 0301/0312 28018G32KT FEW015CB